<?xml version="1.0" encoding="UTF-8" standalone="no" ?>
<gpx xmlns="http://www.topografix.com/GPX/1/1" xmlns:xsi="http://www.w3.org/2001/XMLSchema-instance" xsi:schemaLocation="http://www.topografix.com/GPX/1/1 http://www.topografix.com/GPX/1/1/gpx.xsd" version="1.1" creator="VisuGPX - https://www.visugpx.com">
  <metadata>
    <name>Mérindole - Parc de l'Arbois</name>
  </metadata>
  <trk>
    <name><![CDATA[Parc de l'Arbois]]></name>
    <trkseg>
      <trkpt lat="43.48866" lon="5.31675">
        <ele>140</ele>
        <time>2019-11-19T13:10:03Z</time>
      </trkpt>
      <trkpt lat="43.48853" lon="5.31688">
        <ele>127</ele>
        <time>2019-11-19T13:10:08Z</time>
      </trkpt>
      <trkpt lat="43.48859" lon="5.3168">
        <ele>126</ele>
        <time>2019-11-19T13:11:23Z</time>
      </trkpt>
      <trkpt lat="43.48865" lon="5.31669">
        <ele>126</ele>
        <time>2019-11-19T13:11:36Z</time>
      </trkpt>
      <trkpt lat="43.48872" lon="5.3166">
        <ele>125</ele>
        <time>2019-11-19T13:11:48Z</time>
      </trkpt>
      <trkpt lat="43.48877" lon="5.31649">
        <ele>128</ele>
        <time>2019-11-19T13:13:18Z</time>
      </trkpt>
      <trkpt lat="43.48883" lon="5.31638">
        <ele>127</ele>
        <time>2019-11-19T13:13:37Z</time>
      </trkpt>
      <trkpt lat="43.48874" lon="5.31633">
        <ele>128</ele>
        <time>2019-11-19T13:13:49Z</time>
      </trkpt>
      <trkpt lat="43.48865" lon="5.31635">
        <ele>128</ele>
        <time>2019-11-19T13:13:59Z</time>
      </trkpt>
      <trkpt lat="43.48857" lon="5.3164">
        <ele>128</ele>
        <time>2019-11-19T13:14:09Z</time>
      </trkpt>
      <trkpt lat="43.48848" lon="5.31637">
        <ele>128</ele>
        <time>2019-11-19T13:14:19Z</time>
      </trkpt>
      <trkpt lat="43.48841" lon="5.31628">
        <ele>127</ele>
        <time>2019-11-19T13:14:31Z</time>
      </trkpt>
      <trkpt lat="43.48834" lon="5.3162">
        <ele>125</ele>
        <time>2019-11-19T13:14:44Z</time>
      </trkpt>
      <trkpt lat="43.48827" lon="5.31609">
        <ele>124</ele>
        <time>2019-11-19T13:14:55Z</time>
      </trkpt>
      <trkpt lat="43.4882" lon="5.316">
        <ele>123</ele>
        <time>2019-11-19T13:15:05Z</time>
      </trkpt>
      <trkpt lat="43.48814" lon="5.31589">
        <ele>124</ele>
        <time>2019-11-19T13:16:23Z</time>
      </trkpt>
      <trkpt lat="43.48808" lon="5.3158">
        <ele>122</ele>
        <time>2019-11-19T13:16:37Z</time>
      </trkpt>
      <trkpt lat="43.48805" lon="5.31567">
        <ele>123</ele>
        <time>2019-11-19T13:16:48Z</time>
      </trkpt>
      <trkpt lat="43.48799" lon="5.31559">
        <ele>123</ele>
        <time>2019-11-19T13:16:56Z</time>
      </trkpt>
      <trkpt lat="43.48793" lon="5.31549">
        <ele>121</ele>
        <time>2019-11-19T13:17:43Z</time>
      </trkpt>
      <trkpt lat="43.48785" lon="5.31541">
        <ele>121</ele>
        <time>2019-11-19T13:17:54Z</time>
      </trkpt>
      <trkpt lat="43.48776" lon="5.31542">
        <ele>123</ele>
        <time>2019-11-19T13:18:04Z</time>
      </trkpt>
      <trkpt lat="43.48769" lon="5.3155">
        <ele>122</ele>
        <time>2019-11-19T13:18:14Z</time>
      </trkpt>
      <trkpt lat="43.48767" lon="5.31562">
        <ele>123</ele>
        <time>2019-11-19T13:18:27Z</time>
      </trkpt>
      <trkpt lat="43.48763" lon="5.31574">
        <ele>123</ele>
        <time>2019-11-19T13:18:38Z</time>
      </trkpt>
      <trkpt lat="43.48755" lon="5.31581">
        <ele>124</ele>
        <time>2019-11-19T13:18:48Z</time>
      </trkpt>
      <trkpt lat="43.48746" lon="5.31585">
        <ele>122</ele>
        <time>2019-11-19T13:19:01Z</time>
      </trkpt>
      <trkpt lat="43.48738" lon="5.31592">
        <ele>122</ele>
        <time>2019-11-19T13:19:12Z</time>
      </trkpt>
      <trkpt lat="43.4873" lon="5.316">
        <ele>122</ele>
        <time>2019-11-19T13:19:23Z</time>
      </trkpt>
      <trkpt lat="43.48722" lon="5.31608">
        <ele>125</ele>
        <time>2019-11-19T13:19:33Z</time>
      </trkpt>
      <trkpt lat="43.48714" lon="5.31616">
        <ele>125</ele>
        <time>2019-11-19T13:19:43Z</time>
      </trkpt>
      <trkpt lat="43.48706" lon="5.31624">
        <ele>125</ele>
        <time>2019-11-19T13:19:53Z</time>
      </trkpt>
      <trkpt lat="43.48697" lon="5.31628">
        <ele>126</ele>
        <time>2019-11-19T13:20:04Z</time>
      </trkpt>
      <trkpt lat="43.48688" lon="5.31625">
        <ele>125</ele>
        <time>2019-11-19T13:20:18Z</time>
      </trkpt>
      <trkpt lat="43.48679" lon="5.31621">
        <ele>125</ele>
        <time>2019-11-19T13:20:29Z</time>
      </trkpt>
      <trkpt lat="43.48669" lon="5.31617">
        <ele>124</ele>
        <time>2019-11-19T13:20:40Z</time>
      </trkpt>
      <trkpt lat="43.48659" lon="5.31615">
        <ele>124</ele>
        <time>2019-11-19T13:20:50Z</time>
      </trkpt>
      <trkpt lat="43.4865" lon="5.31618">
        <ele>126</ele>
        <time>2019-11-19T13:21:01Z</time>
      </trkpt>
      <trkpt lat="43.48641" lon="5.31619">
        <ele>126</ele>
        <time>2019-11-19T13:21:11Z</time>
      </trkpt>
      <trkpt lat="43.48633" lon="5.31611">
        <ele>126</ele>
        <time>2019-11-19T13:21:22Z</time>
      </trkpt>
      <trkpt lat="43.48628" lon="5.31599">
        <ele>127</ele>
        <time>2019-11-19T13:21:32Z</time>
      </trkpt>
      <trkpt lat="43.48627" lon="5.31587">
        <ele>128</ele>
        <time>2019-11-19T13:21:42Z</time>
      </trkpt>
      <trkpt lat="43.48631" lon="5.31575">
        <ele>131</ele>
        <time>2019-11-19T13:21:54Z</time>
      </trkpt>
      <trkpt lat="43.48635" lon="5.31563">
        <ele>134</ele>
        <time>2019-11-19T13:22:07Z</time>
      </trkpt>
      <trkpt lat="43.48641" lon="5.31551">
        <ele>136</ele>
        <time>2019-11-19T13:23:17Z</time>
      </trkpt>
      <trkpt lat="43.48643" lon="5.31539">
        <ele>138</ele>
        <time>2019-11-19T13:23:29Z</time>
      </trkpt>
      <trkpt lat="43.48643" lon="5.31525">
        <ele>139</ele>
        <time>2019-11-19T13:23:41Z</time>
      </trkpt>
      <trkpt lat="43.48643" lon="5.31512">
        <ele>141</ele>
        <time>2019-11-19T13:23:53Z</time>
      </trkpt>
      <trkpt lat="43.4865" lon="5.31504">
        <ele>140</ele>
        <time>2019-11-19T13:24:08Z</time>
      </trkpt>
      <trkpt lat="43.48658" lon="5.315">
        <ele>142</ele>
        <time>2019-11-19T13:24:20Z</time>
      </trkpt>
      <trkpt lat="43.48667" lon="5.31494">
        <ele>142</ele>
        <time>2019-11-19T13:24:35Z</time>
      </trkpt>
      <trkpt lat="43.48675" lon="5.3149">
        <ele>142</ele>
        <time>2019-11-19T13:24:49Z</time>
      </trkpt>
      <trkpt lat="43.48684" lon="5.31488">
        <ele>143</ele>
        <time>2019-11-19T13:25:02Z</time>
      </trkpt>
      <trkpt lat="43.48694" lon="5.31489">
        <ele>144</ele>
        <time>2019-11-19T13:25:15Z</time>
      </trkpt>
      <trkpt lat="43.48703" lon="5.3149">
        <ele>144</ele>
        <time>2019-11-19T13:25:26Z</time>
      </trkpt>
      <trkpt lat="43.48712" lon="5.31488">
        <ele>145</ele>
        <time>2019-11-19T13:25:39Z</time>
      </trkpt>
      <trkpt lat="43.4872" lon="5.31483">
        <ele>146</ele>
        <time>2019-11-19T13:25:53Z</time>
      </trkpt>
      <trkpt lat="43.48728" lon="5.31475">
        <ele>147</ele>
        <time>2019-11-19T13:26:05Z</time>
      </trkpt>
      <trkpt lat="43.48736" lon="5.31469">
        <ele>147</ele>
        <time>2019-11-19T13:26:17Z</time>
      </trkpt>
      <trkpt lat="43.48744" lon="5.31461">
        <ele>147</ele>
        <time>2019-11-19T13:26:29Z</time>
      </trkpt>
      <trkpt lat="43.4875" lon="5.31451">
        <ele>149</ele>
        <time>2019-11-19T13:26:42Z</time>
      </trkpt>
      <trkpt lat="43.48753" lon="5.31439">
        <ele>151</ele>
        <time>2019-11-19T13:26:54Z</time>
      </trkpt>
      <trkpt lat="43.48747" lon="5.31429">
        <ele>150</ele>
        <time>2019-11-19T13:27:06Z</time>
      </trkpt>
      <trkpt lat="43.48738" lon="5.31423">
        <ele>149</ele>
        <time>2019-11-19T13:27:18Z</time>
      </trkpt>
      <trkpt lat="43.4873" lon="5.31417">
        <ele>149</ele>
        <time>2019-11-19T13:27:29Z</time>
      </trkpt>
      <trkpt lat="43.48722" lon="5.3141">
        <ele>148</ele>
        <time>2019-11-19T13:27:40Z</time>
      </trkpt>
      <trkpt lat="43.48716" lon="5.314">
        <ele>148</ele>
        <time>2019-11-19T13:27:51Z</time>
      </trkpt>
      <trkpt lat="43.48712" lon="5.31389">
        <ele>149</ele>
        <time>2019-11-19T13:28:03Z</time>
      </trkpt>
      <trkpt lat="43.48711" lon="5.31376">
        <ele>151</ele>
        <time>2019-11-19T13:28:14Z</time>
      </trkpt>
      <trkpt lat="43.48713" lon="5.31363">
        <ele>153</ele>
        <time>2019-11-19T13:28:25Z</time>
      </trkpt>
      <trkpt lat="43.48717" lon="5.31351">
        <ele>154</ele>
        <time>2019-11-19T13:28:55Z</time>
      </trkpt>
      <trkpt lat="43.48722" lon="5.3134">
        <ele>154</ele>
        <time>2019-11-19T13:29:16Z</time>
      </trkpt>
      <trkpt lat="43.48727" lon="5.31329">
        <ele>155</ele>
        <time>2019-11-19T13:29:28Z</time>
      </trkpt>
      <trkpt lat="43.48732" lon="5.31319">
        <ele>157</ele>
        <time>2019-11-19T13:29:40Z</time>
      </trkpt>
      <trkpt lat="43.48737" lon="5.31308">
        <ele>158</ele>
        <time>2019-11-19T13:29:52Z</time>
      </trkpt>
      <trkpt lat="43.48742" lon="5.31298">
        <ele>158</ele>
        <time>2019-11-19T13:30:03Z</time>
      </trkpt>
      <trkpt lat="43.48747" lon="5.31287">
        <ele>158</ele>
        <time>2019-11-19T13:30:14Z</time>
      </trkpt>
      <trkpt lat="43.48751" lon="5.31275">
        <ele>158</ele>
        <time>2019-11-19T13:30:25Z</time>
      </trkpt>
      <trkpt lat="43.48755" lon="5.31263">
        <ele>157</ele>
        <time>2019-11-19T13:30:35Z</time>
      </trkpt>
      <trkpt lat="43.48758" lon="5.31251">
        <ele>160</ele>
        <time>2019-11-19T13:30:46Z</time>
      </trkpt>
      <trkpt lat="43.48762" lon="5.31239">
        <ele>159</ele>
        <time>2019-11-19T13:30:58Z</time>
      </trkpt>
      <trkpt lat="43.48766" lon="5.31228">
        <ele>160</ele>
        <time>2019-11-19T13:31:40Z</time>
      </trkpt>
      <trkpt lat="43.48772" lon="5.31217">
        <ele>161</ele>
        <time>2019-11-19T13:31:50Z</time>
      </trkpt>
      <trkpt lat="43.48778" lon="5.31206">
        <ele>163</ele>
        <time>2019-11-19T13:32:00Z</time>
      </trkpt>
      <trkpt lat="43.48784" lon="5.31197">
        <ele>164</ele>
        <time>2019-11-19T13:32:10Z</time>
      </trkpt>
      <trkpt lat="43.4879" lon="5.31187">
        <ele>165</ele>
        <time>2019-11-19T13:32:21Z</time>
      </trkpt>
      <trkpt lat="43.48797" lon="5.31178">
        <ele>164</ele>
        <time>2019-11-19T13:32:32Z</time>
      </trkpt>
      <trkpt lat="43.48803" lon="5.31167">
        <ele>165</ele>
        <time>2019-11-19T13:32:43Z</time>
      </trkpt>
      <trkpt lat="43.48809" lon="5.31158">
        <ele>166</ele>
        <time>2019-11-19T13:32:54Z</time>
      </trkpt>
      <trkpt lat="43.48815" lon="5.31148">
        <ele>166</ele>
        <time>2019-11-19T13:33:06Z</time>
      </trkpt>
      <trkpt lat="43.48821" lon="5.31138">
        <ele>165</ele>
        <time>2019-11-19T13:33:18Z</time>
      </trkpt>
      <trkpt lat="43.48829" lon="5.31131">
        <ele>164</ele>
        <time>2019-11-19T13:33:30Z</time>
      </trkpt>
      <trkpt lat="43.48836" lon="5.31123">
        <ele>163</ele>
        <time>2019-11-19T13:33:40Z</time>
      </trkpt>
      <trkpt lat="43.48843" lon="5.31113">
        <ele>162</ele>
        <time>2019-11-19T13:33:50Z</time>
      </trkpt>
      <trkpt lat="43.48848" lon="5.31103">
        <ele>162</ele>
        <time>2019-11-19T13:34:00Z</time>
      </trkpt>
      <trkpt lat="43.48855" lon="5.31094">
        <ele>162</ele>
        <time>2019-11-19T13:34:09Z</time>
      </trkpt>
      <trkpt lat="43.48862" lon="5.31086">
        <ele>162</ele>
        <time>2019-11-19T13:34:18Z</time>
      </trkpt>
      <trkpt lat="43.4887" lon="5.31078">
        <ele>163</ele>
        <time>2019-11-19T13:34:29Z</time>
      </trkpt>
      <trkpt lat="43.48877" lon="5.3107">
        <ele>164</ele>
        <time>2019-11-19T13:34:39Z</time>
      </trkpt>
      <trkpt lat="43.48884" lon="5.31062">
        <ele>163</ele>
        <time>2019-11-19T13:34:48Z</time>
      </trkpt>
      <trkpt lat="43.48891" lon="5.31053">
        <ele>164</ele>
        <time>2019-11-19T13:34:57Z</time>
      </trkpt>
      <trkpt lat="43.48897" lon="5.31043">
        <ele>164</ele>
        <time>2019-11-19T13:35:06Z</time>
      </trkpt>
      <trkpt lat="43.48903" lon="5.31032">
        <ele>165</ele>
        <time>2019-11-19T13:35:15Z</time>
      </trkpt>
      <trkpt lat="43.48907" lon="5.3102">
        <ele>165</ele>
        <time>2019-11-19T13:35:25Z</time>
      </trkpt>
      <trkpt lat="43.48909" lon="5.31007">
        <ele>165</ele>
        <time>2019-11-19T13:35:34Z</time>
      </trkpt>
      <trkpt lat="43.48912" lon="5.30993">
        <ele>165</ele>
        <time>2019-11-19T13:35:46Z</time>
      </trkpt>
      <trkpt lat="43.48919" lon="5.30983">
        <ele>165</ele>
        <time>2019-11-19T13:35:56Z</time>
      </trkpt>
      <trkpt lat="43.48925" lon="5.30973">
        <ele>164</ele>
        <time>2019-11-19T13:36:05Z</time>
      </trkpt>
      <trkpt lat="43.48929" lon="5.30961">
        <ele>165</ele>
        <time>2019-11-19T13:36:15Z</time>
      </trkpt>
      <trkpt lat="43.48931" lon="5.30949">
        <ele>166</ele>
        <time>2019-11-19T13:36:25Z</time>
      </trkpt>
      <trkpt lat="43.48935" lon="5.30937">
        <ele>165</ele>
        <time>2019-11-19T13:36:35Z</time>
      </trkpt>
      <trkpt lat="43.4894" lon="5.30926">
        <ele>167</ele>
        <time>2019-11-19T13:36:46Z</time>
      </trkpt>
      <trkpt lat="43.48947" lon="5.30918">
        <ele>168</ele>
        <time>2019-11-19T13:36:56Z</time>
      </trkpt>
      <trkpt lat="43.48955" lon="5.3091">
        <ele>169</ele>
        <time>2019-11-19T13:37:07Z</time>
      </trkpt>
      <trkpt lat="43.48963" lon="5.30903">
        <ele>169</ele>
        <time>2019-11-19T13:37:16Z</time>
      </trkpt>
      <trkpt lat="43.4897" lon="5.30895">
        <ele>168</ele>
        <time>2019-11-19T13:37:27Z</time>
      </trkpt>
      <trkpt lat="43.48975" lon="5.30883">
        <ele>167</ele>
        <time>2019-11-19T13:37:37Z</time>
      </trkpt>
      <trkpt lat="43.48981" lon="5.30873">
        <ele>169</ele>
        <time>2019-11-19T13:37:47Z</time>
      </trkpt>
      <trkpt lat="43.48985" lon="5.30861">
        <ele>169</ele>
        <time>2019-11-19T13:37:56Z</time>
      </trkpt>
      <trkpt lat="43.48989" lon="5.30849">
        <ele>169</ele>
        <time>2019-11-19T13:38:05Z</time>
      </trkpt>
      <trkpt lat="43.48991" lon="5.30836">
        <ele>169</ele>
        <time>2019-11-19T13:38:15Z</time>
      </trkpt>
      <trkpt lat="43.48992" lon="5.30824">
        <ele>169</ele>
        <time>2019-11-19T13:38:25Z</time>
      </trkpt>
      <trkpt lat="43.48995" lon="5.30811">
        <ele>171</ele>
        <time>2019-11-19T13:38:37Z</time>
      </trkpt>
      <trkpt lat="43.48999" lon="5.308">
        <ele>172</ele>
        <time>2019-11-19T13:38:49Z</time>
      </trkpt>
      <trkpt lat="43.49006" lon="5.30792">
        <ele>173</ele>
        <time>2019-11-19T13:39:40Z</time>
      </trkpt>
      <trkpt lat="43.49012" lon="5.30782">
        <ele>174</ele>
        <time>2019-11-19T13:39:52Z</time>
      </trkpt>
      <trkpt lat="43.49019" lon="5.30774">
        <ele>175</ele>
        <time>2019-11-19T13:40:02Z</time>
      </trkpt>
      <trkpt lat="43.49025" lon="5.30764">
        <ele>175</ele>
        <time>2019-11-19T13:40:13Z</time>
      </trkpt>
      <trkpt lat="43.49032" lon="5.30754">
        <ele>176</ele>
        <time>2019-11-19T13:40:24Z</time>
      </trkpt>
      <trkpt lat="43.49038" lon="5.30744">
        <ele>177</ele>
        <time>2019-11-19T13:40:34Z</time>
      </trkpt>
      <trkpt lat="43.49044" lon="5.30735">
        <ele>178</ele>
        <time>2019-11-19T13:40:43Z</time>
      </trkpt>
      <trkpt lat="43.49052" lon="5.30726">
        <ele>178</ele>
        <time>2019-11-19T13:40:54Z</time>
      </trkpt>
      <trkpt lat="43.49059" lon="5.30719">
        <ele>179</ele>
        <time>2019-11-19T13:41:03Z</time>
      </trkpt>
      <trkpt lat="43.49066" lon="5.3071">
        <ele>180</ele>
        <time>2019-11-19T13:41:12Z</time>
      </trkpt>
      <trkpt lat="43.49072" lon="5.30701">
        <ele>180</ele>
        <time>2019-11-19T13:41:22Z</time>
      </trkpt>
      <trkpt lat="43.49079" lon="5.30692">
        <ele>180</ele>
        <time>2019-11-19T13:41:32Z</time>
      </trkpt>
      <trkpt lat="43.49085" lon="5.30682">
        <ele>181</ele>
        <time>2019-11-19T13:41:42Z</time>
      </trkpt>
      <trkpt lat="43.49092" lon="5.30673">
        <ele>182</ele>
        <time>2019-11-19T13:41:51Z</time>
      </trkpt>
      <trkpt lat="43.49097" lon="5.30663">
        <ele>183</ele>
        <time>2019-11-19T13:42:02Z</time>
      </trkpt>
      <trkpt lat="43.49104" lon="5.30654">
        <ele>183</ele>
        <time>2019-11-19T13:42:11Z</time>
      </trkpt>
      <trkpt lat="43.4911" lon="5.30644">
        <ele>184</ele>
        <time>2019-11-19T13:42:21Z</time>
      </trkpt>
      <trkpt lat="43.49116" lon="5.30634">
        <ele>184</ele>
        <time>2019-11-19T13:42:31Z</time>
      </trkpt>
      <trkpt lat="43.49122" lon="5.30623">
        <ele>184</ele>
        <time>2019-11-19T13:42:42Z</time>
      </trkpt>
      <trkpt lat="43.4913" lon="5.30616">
        <ele>187</ele>
        <time>2019-11-19T13:45:06Z</time>
      </trkpt>
      <trkpt lat="43.49125" lon="5.30606">
        <ele>183</ele>
        <time>2019-11-19T13:47:32Z</time>
      </trkpt>
      <trkpt lat="43.49126" lon="5.30593">
        <ele>182</ele>
        <time>2019-11-19T13:47:42Z</time>
      </trkpt>
      <trkpt lat="43.49127" lon="5.3058">
        <ele>183</ele>
        <time>2019-11-19T13:47:52Z</time>
      </trkpt>
      <trkpt lat="43.49134" lon="5.30572">
        <ele>183</ele>
        <time>2019-11-19T13:48:04Z</time>
      </trkpt>
      <trkpt lat="43.49138" lon="5.30561">
        <ele>183</ele>
        <time>2019-11-19T13:48:18Z</time>
      </trkpt>
      <trkpt lat="43.49141" lon="5.30549">
        <ele>181</ele>
        <time>2019-11-19T13:48:29Z</time>
      </trkpt>
      <trkpt lat="43.49146" lon="5.30537">
        <ele>179</ele>
        <time>2019-11-19T13:48:39Z</time>
      </trkpt>
      <trkpt lat="43.49149" lon="5.30524">
        <ele>179</ele>
        <time>2019-11-19T13:48:51Z</time>
      </trkpt>
      <trkpt lat="43.4915" lon="5.30511">
        <ele>178</ele>
        <time>2019-11-19T13:49:02Z</time>
      </trkpt>
      <trkpt lat="43.49146" lon="5.30499">
        <ele>179</ele>
        <time>2019-11-19T13:49:12Z</time>
      </trkpt>
      <trkpt lat="43.49141" lon="5.30488">
        <ele>179</ele>
        <time>2019-11-19T13:49:21Z</time>
      </trkpt>
      <trkpt lat="43.49137" lon="5.30477">
        <ele>179</ele>
        <time>2019-11-19T13:49:31Z</time>
      </trkpt>
      <trkpt lat="43.49136" lon="5.30465">
        <ele>179</ele>
        <time>2019-11-19T13:49:40Z</time>
      </trkpt>
      <trkpt lat="43.49138" lon="5.30452">
        <ele>180</ele>
        <time>2019-11-19T13:49:49Z</time>
      </trkpt>
      <trkpt lat="43.49145" lon="5.30442">
        <ele>179</ele>
        <time>2019-11-19T13:49:59Z</time>
      </trkpt>
      <trkpt lat="43.49154" lon="5.3044">
        <ele>180</ele>
        <time>2019-11-19T13:50:09Z</time>
      </trkpt>
      <trkpt lat="43.49163" lon="5.30443">
        <ele>180</ele>
        <time>2019-11-19T13:50:22Z</time>
      </trkpt>
      <trkpt lat="43.49172" lon="5.30443">
        <ele>180</ele>
        <time>2019-11-19T13:50:34Z</time>
      </trkpt>
      <trkpt lat="43.49181" lon="5.30439">
        <ele>179</ele>
        <time>2019-11-19T13:50:44Z</time>
      </trkpt>
      <trkpt lat="43.49187" lon="5.30428">
        <ele>178</ele>
        <time>2019-11-19T13:50:55Z</time>
      </trkpt>
      <trkpt lat="43.49188" lon="5.30415">
        <ele>177</ele>
        <time>2019-11-19T13:51:04Z</time>
      </trkpt>
      <trkpt lat="43.49184" lon="5.30404">
        <ele>177</ele>
        <time>2019-11-19T13:51:14Z</time>
      </trkpt>
      <trkpt lat="43.49182" lon="5.30391">
        <ele>177</ele>
        <time>2019-11-19T13:51:24Z</time>
      </trkpt>
      <trkpt lat="43.49181" lon="5.30379">
        <ele>176</ele>
        <time>2019-11-19T13:51:36Z</time>
      </trkpt>
      <trkpt lat="43.4918" lon="5.30366">
        <ele>175</ele>
        <time>2019-11-19T13:51:48Z</time>
      </trkpt>
      <trkpt lat="43.4918" lon="5.30353">
        <ele>174</ele>
        <time>2019-11-19T13:51:59Z</time>
      </trkpt>
      <trkpt lat="43.4918" lon="5.3034">
        <ele>173</ele>
        <time>2019-11-19T13:52:09Z</time>
      </trkpt>
      <trkpt lat="43.4918" lon="5.30328">
        <ele>173</ele>
        <time>2019-11-19T13:52:18Z</time>
      </trkpt>
      <trkpt lat="43.4918" lon="5.30315">
        <ele>173</ele>
        <time>2019-11-19T13:52:28Z</time>
      </trkpt>
      <trkpt lat="43.49182" lon="5.30302">
        <ele>171</ele>
        <time>2019-11-19T13:52:39Z</time>
      </trkpt>
      <trkpt lat="43.49184" lon="5.3029">
        <ele>171</ele>
        <time>2019-11-19T13:52:49Z</time>
      </trkpt>
      <trkpt lat="43.49187" lon="5.30277">
        <ele>169</ele>
        <time>2019-11-19T13:53:00Z</time>
      </trkpt>
      <trkpt lat="43.4919" lon="5.30265">
        <ele>167</ele>
        <time>2019-11-19T13:53:11Z</time>
      </trkpt>
      <trkpt lat="43.49192" lon="5.30252">
        <ele>170</ele>
        <time>2019-11-19T13:54:13Z</time>
      </trkpt>
      <trkpt lat="43.49197" lon="5.3024">
        <ele>169</ele>
        <time>2019-11-19T13:54:24Z</time>
      </trkpt>
      <trkpt lat="43.49203" lon="5.3023">
        <ele>168</ele>
        <time>2019-11-19T13:54:36Z</time>
      </trkpt>
      <trkpt lat="43.49208" lon="5.30218">
        <ele>168</ele>
        <time>2019-11-19T13:54:47Z</time>
      </trkpt>
      <trkpt lat="43.49216" lon="5.30209">
        <ele>169</ele>
        <time>2019-11-19T13:54:57Z</time>
      </trkpt>
      <trkpt lat="43.49223" lon="5.302">
        <ele>170</ele>
        <time>2019-11-19T13:55:07Z</time>
      </trkpt>
      <trkpt lat="43.49228" lon="5.30189">
        <ele>168</ele>
        <time>2019-11-19T13:55:17Z</time>
      </trkpt>
      <trkpt lat="43.49235" lon="5.30179">
        <ele>166</ele>
        <time>2019-11-19T13:55:29Z</time>
      </trkpt>
      <trkpt lat="43.49241" lon="5.30171">
        <ele>167</ele>
        <time>2019-11-19T13:55:38Z</time>
      </trkpt>
      <trkpt lat="43.49247" lon="5.30161">
        <ele>166</ele>
        <time>2019-11-19T13:55:47Z</time>
      </trkpt>
      <trkpt lat="43.49255" lon="5.30153">
        <ele>165</ele>
        <time>2019-11-19T13:55:57Z</time>
      </trkpt>
      <trkpt lat="43.49262" lon="5.30144">
        <ele>163</ele>
        <time>2019-11-19T13:56:08Z</time>
      </trkpt>
      <trkpt lat="43.49269" lon="5.30135">
        <ele>163</ele>
        <time>2019-11-19T13:56:20Z</time>
      </trkpt>
      <trkpt lat="43.49274" lon="5.30124">
        <ele>162</ele>
        <time>2019-11-19T13:56:30Z</time>
      </trkpt>
      <trkpt lat="43.49279" lon="5.30114">
        <ele>161</ele>
        <time>2019-11-19T13:56:41Z</time>
      </trkpt>
      <trkpt lat="43.49285" lon="5.30103">
        <ele>159</ele>
        <time>2019-11-19T13:56:52Z</time>
      </trkpt>
      <trkpt lat="43.49291" lon="5.30093">
        <ele>157</ele>
        <time>2019-11-19T13:57:04Z</time>
      </trkpt>
      <trkpt lat="43.49301" lon="5.30092">
        <ele>165</ele>
        <time>2019-11-19T13:57:50Z</time>
      </trkpt>
      <trkpt lat="43.49308" lon="5.30084">
        <ele>166</ele>
        <time>2019-11-19T13:58:01Z</time>
      </trkpt>
      <trkpt lat="43.49314" lon="5.30074">
        <ele>164</ele>
        <time>2019-11-19T13:58:11Z</time>
      </trkpt>
      <trkpt lat="43.49319" lon="5.30063">
        <ele>163</ele>
        <time>2019-11-19T13:58:22Z</time>
      </trkpt>
      <trkpt lat="43.49322" lon="5.30051">
        <ele>162</ele>
        <time>2019-11-19T13:58:32Z</time>
      </trkpt>
      <trkpt lat="43.49325" lon="5.30039">
        <ele>162</ele>
        <time>2019-11-19T13:58:43Z</time>
      </trkpt>
      <trkpt lat="43.49329" lon="5.30027">
        <ele>163</ele>
        <time>2019-11-19T13:58:53Z</time>
      </trkpt>
      <trkpt lat="43.49333" lon="5.30015">
        <ele>164</ele>
        <time>2019-11-19T13:59:04Z</time>
      </trkpt>
      <trkpt lat="43.49337" lon="5.30004">
        <ele>164</ele>
        <time>2019-11-19T13:59:15Z</time>
      </trkpt>
      <trkpt lat="43.49343" lon="5.29994">
        <ele>163</ele>
        <time>2019-11-19T13:59:27Z</time>
      </trkpt>
      <trkpt lat="43.49349" lon="5.29982">
        <ele>163</ele>
        <time>2019-11-19T13:59:37Z</time>
      </trkpt>
      <trkpt lat="43.49354" lon="5.29971">
        <ele>164</ele>
        <time>2019-11-19T13:59:47Z</time>
      </trkpt>
      <trkpt lat="43.49359" lon="5.29959">
        <ele>165</ele>
        <time>2019-11-19T14:00:00Z</time>
      </trkpt>
      <trkpt lat="43.49363" lon="5.29948">
        <ele>166</ele>
        <time>2019-11-19T14:00:10Z</time>
      </trkpt>
      <trkpt lat="43.49369" lon="5.29938">
        <ele>167</ele>
        <time>2019-11-19T14:00:23Z</time>
      </trkpt>
      <trkpt lat="43.49372" lon="5.29926">
        <ele>169</ele>
        <time>2019-11-19T14:00:32Z</time>
      </trkpt>
      <trkpt lat="43.49376" lon="5.29915">
        <ele>170</ele>
        <time>2019-11-19T14:00:41Z</time>
      </trkpt>
      <trkpt lat="43.49378" lon="5.29902">
        <ele>171</ele>
        <time>2019-11-19T14:00:52Z</time>
      </trkpt>
      <trkpt lat="43.49378" lon="5.2989">
        <ele>173</ele>
        <time>2019-11-19T14:01:04Z</time>
      </trkpt>
      <trkpt lat="43.49377" lon="5.29876">
        <ele>173</ele>
        <time>2019-11-19T14:01:16Z</time>
      </trkpt>
      <trkpt lat="43.49374" lon="5.29864">
        <ele>172</ele>
        <time>2019-11-19T14:01:26Z</time>
      </trkpt>
      <trkpt lat="43.49372" lon="5.29852">
        <ele>170</ele>
        <time>2019-11-19T14:01:51Z</time>
      </trkpt>
      <trkpt lat="43.49366" lon="5.29842">
        <ele>171</ele>
        <time>2019-11-19T14:02:03Z</time>
      </trkpt>
      <trkpt lat="43.49362" lon="5.2983">
        <ele>172</ele>
        <time>2019-11-19T14:02:13Z</time>
      </trkpt>
      <trkpt lat="43.49355" lon="5.29821">
        <ele>172</ele>
        <time>2019-11-19T14:02:24Z</time>
      </trkpt>
      <trkpt lat="43.4935" lon="5.2981">
        <ele>171</ele>
        <time>2019-11-19T14:02:35Z</time>
      </trkpt>
      <trkpt lat="43.49343" lon="5.29801">
        <ele>172</ele>
        <time>2019-11-19T14:02:44Z</time>
      </trkpt>
      <trkpt lat="43.49335" lon="5.29793">
        <ele>174</ele>
        <time>2019-11-19T14:02:55Z</time>
      </trkpt>
      <trkpt lat="43.49333" lon="5.29779">
        <ele>175</ele>
        <time>2019-11-19T14:03:20Z</time>
      </trkpt>
      <trkpt lat="43.49337" lon="5.29768">
        <ele>174</ele>
        <time>2019-11-19T14:03:32Z</time>
      </trkpt>
      <trkpt lat="43.4934" lon="5.29756">
        <ele>175</ele>
        <time>2019-11-19T14:03:46Z</time>
      </trkpt>
      <trkpt lat="43.49343" lon="5.29743">
        <ele>175</ele>
        <time>2019-11-19T14:04:04Z</time>
      </trkpt>
      <trkpt lat="43.49342" lon="5.2973">
        <ele>177</ele>
        <time>2019-11-19T14:04:22Z</time>
      </trkpt>
      <trkpt lat="43.49333" lon="5.2973">
        <ele>178</ele>
        <time>2019-11-19T14:04:39Z</time>
      </trkpt>
      <trkpt lat="43.49324" lon="5.29731">
        <ele>180</ele>
        <time>2019-11-19T14:04:53Z</time>
      </trkpt>
      <trkpt lat="43.49315" lon="5.29727">
        <ele>180</ele>
        <time>2019-11-19T14:05:06Z</time>
      </trkpt>
      <trkpt lat="43.49307" lon="5.2972">
        <ele>182</ele>
        <time>2019-11-19T14:05:18Z</time>
      </trkpt>
      <trkpt lat="43.49302" lon="5.29708">
        <ele>183</ele>
        <time>2019-11-19T14:05:31Z</time>
      </trkpt>
      <trkpt lat="43.49304" lon="5.29696">
        <ele>184</ele>
        <time>2019-11-19T14:05:44Z</time>
      </trkpt>
      <trkpt lat="43.4931" lon="5.29685">
        <ele>182</ele>
        <time>2019-11-19T14:05:57Z</time>
      </trkpt>
      <trkpt lat="43.49314" lon="5.29673">
        <ele>182</ele>
        <time>2019-11-19T14:06:08Z</time>
      </trkpt>
      <trkpt lat="43.49317" lon="5.29661">
        <ele>182</ele>
        <time>2019-11-19T14:06:20Z</time>
      </trkpt>
      <trkpt lat="43.49322" lon="5.29651">
        <ele>182</ele>
        <time>2019-11-19T14:06:31Z</time>
      </trkpt>
      <trkpt lat="43.49327" lon="5.2964">
        <ele>182</ele>
        <time>2019-11-19T14:06:43Z</time>
      </trkpt>
      <trkpt lat="43.49332" lon="5.29629">
        <ele>182</ele>
        <time>2019-11-19T14:06:56Z</time>
      </trkpt>
      <trkpt lat="43.49335" lon="5.29617">
        <ele>185</ele>
        <time>2019-11-19T14:07:08Z</time>
      </trkpt>
      <trkpt lat="43.49337" lon="5.29604">
        <ele>186</ele>
        <time>2019-11-19T14:07:21Z</time>
      </trkpt>
      <trkpt lat="43.49339" lon="5.29591">
        <ele>186</ele>
        <time>2019-11-19T14:07:32Z</time>
      </trkpt>
      <trkpt lat="43.49339" lon="5.29578">
        <ele>186</ele>
        <time>2019-11-19T14:07:44Z</time>
      </trkpt>
      <trkpt lat="43.49339" lon="5.29564">
        <ele>186</ele>
        <time>2019-11-19T14:07:55Z</time>
      </trkpt>
      <trkpt lat="43.49338" lon="5.29552">
        <ele>186</ele>
        <time>2019-11-19T14:08:05Z</time>
      </trkpt>
      <trkpt lat="43.49338" lon="5.29539">
        <ele>185</ele>
        <time>2019-11-19T14:08:50Z</time>
      </trkpt>
      <trkpt lat="43.49338" lon="5.29525">
        <ele>184</ele>
        <time>2019-11-19T14:09:12Z</time>
      </trkpt>
      <trkpt lat="43.49337" lon="5.29511">
        <ele>183</ele>
        <time>2019-11-19T14:09:22Z</time>
      </trkpt>
      <trkpt lat="43.49335" lon="5.29498">
        <ele>182</ele>
        <time>2019-11-19T14:09:31Z</time>
      </trkpt>
      <trkpt lat="43.49333" lon="5.29486">
        <ele>182</ele>
        <time>2019-11-19T14:09:40Z</time>
      </trkpt>
      <trkpt lat="43.49332" lon="5.29473">
        <ele>182</ele>
        <time>2019-11-19T14:09:48Z</time>
      </trkpt>
      <trkpt lat="43.49331" lon="5.29461">
        <ele>182</ele>
        <time>2019-11-19T14:09:58Z</time>
      </trkpt>
      <trkpt lat="43.49332" lon="5.29447">
        <ele>182</ele>
        <time>2019-11-19T14:10:31Z</time>
      </trkpt>
      <trkpt lat="43.49323" lon="5.29445">
        <ele>183</ele>
        <time>2019-11-19T14:11:05Z</time>
      </trkpt>
      <trkpt lat="43.49314" lon="5.29448">
        <ele>183</ele>
        <time>2019-11-19T14:11:19Z</time>
      </trkpt>
      <trkpt lat="43.49304" lon="5.2945">
        <ele>185</ele>
        <time>2019-11-19T14:11:31Z</time>
      </trkpt>
      <trkpt lat="43.49295" lon="5.2945">
        <ele>185</ele>
        <time>2019-11-19T14:11:45Z</time>
      </trkpt>
      <trkpt lat="43.49288" lon="5.29458">
        <ele>184</ele>
        <time>2019-11-19T14:11:59Z</time>
      </trkpt>
      <trkpt lat="43.49282" lon="5.2947">
        <ele>186</ele>
        <time>2019-11-19T14:12:15Z</time>
      </trkpt>
      <trkpt lat="43.49283" lon="5.29483">
        <ele>186</ele>
        <time>2019-11-19T14:12:27Z</time>
      </trkpt>
      <trkpt lat="43.4928" lon="5.29495">
        <ele>187</ele>
        <time>2019-11-19T14:12:42Z</time>
      </trkpt>
      <trkpt lat="43.49279" lon="5.29508">
        <ele>189</ele>
        <time>2019-11-19T14:12:56Z</time>
      </trkpt>
      <trkpt lat="43.49279" lon="5.29521">
        <ele>190</ele>
        <time>2019-11-19T14:13:09Z</time>
      </trkpt>
      <trkpt lat="43.49278" lon="5.29534">
        <ele>192</ele>
        <time>2019-11-19T14:13:24Z</time>
      </trkpt>
      <trkpt lat="43.49278" lon="5.29547">
        <ele>193</ele>
        <time>2019-11-19T14:13:46Z</time>
      </trkpt>
      <trkpt lat="43.49273" lon="5.29557">
        <ele>194</ele>
        <time>2019-11-19T14:14:00Z</time>
      </trkpt>
      <trkpt lat="43.49265" lon="5.29565">
        <ele>194</ele>
        <time>2019-11-19T14:14:15Z</time>
      </trkpt>
      <trkpt lat="43.49258" lon="5.29574">
        <ele>194</ele>
        <time>2019-11-19T14:14:28Z</time>
      </trkpt>
      <trkpt lat="43.49253" lon="5.29585">
        <ele>195</ele>
        <time>2019-11-19T14:14:45Z</time>
      </trkpt>
      <trkpt lat="43.49246" lon="5.29593">
        <ele>197</ele>
        <time>2019-11-19T14:14:58Z</time>
      </trkpt>
      <trkpt lat="43.49237" lon="5.29597">
        <ele>198</ele>
        <time>2019-11-19T14:15:19Z</time>
      </trkpt>
      <trkpt lat="43.49229" lon="5.296">
        <ele>200</ele>
        <time>2019-11-19T14:15:31Z</time>
      </trkpt>
      <trkpt lat="43.49221" lon="5.29608">
        <ele>200</ele>
        <time>2019-11-19T14:15:42Z</time>
      </trkpt>
      <trkpt lat="43.49217" lon="5.2962">
        <ele>202</ele>
        <time>2019-11-19T14:15:56Z</time>
      </trkpt>
      <trkpt lat="43.49216" lon="5.29633">
        <ele>204</ele>
        <time>2019-11-19T14:16:09Z</time>
      </trkpt>
      <trkpt lat="43.49214" lon="5.29645">
        <ele>204</ele>
        <time>2019-11-19T14:17:05Z</time>
      </trkpt>
      <trkpt lat="43.49209" lon="5.29656">
        <ele>205</ele>
        <time>2019-11-19T14:17:15Z</time>
      </trkpt>
      <trkpt lat="43.49203" lon="5.29666">
        <ele>207</ele>
        <time>2019-11-19T14:17:26Z</time>
      </trkpt>
      <trkpt lat="43.49197" lon="5.29677">
        <ele>207</ele>
        <time>2019-11-19T14:17:36Z</time>
      </trkpt>
      <trkpt lat="43.49192" lon="5.29687">
        <ele>208</ele>
        <time>2019-11-19T14:17:46Z</time>
      </trkpt>
      <trkpt lat="43.49191" lon="5.297">
        <ele>209</ele>
        <time>2019-11-19T14:20:43Z</time>
      </trkpt>
      <trkpt lat="43.49186" lon="5.29712">
        <ele>209</ele>
        <time>2019-11-19T14:20:57Z</time>
      </trkpt>
      <trkpt lat="43.49182" lon="5.29724">
        <ele>212</ele>
        <time>2019-11-19T14:21:18Z</time>
      </trkpt>
      <trkpt lat="43.49179" lon="5.29736">
        <ele>213</ele>
        <time>2019-11-19T14:21:32Z</time>
      </trkpt>
      <trkpt lat="43.49175" lon="5.29748">
        <ele>214</ele>
        <time>2019-11-19T14:21:44Z</time>
      </trkpt>
      <trkpt lat="43.49172" lon="5.29761">
        <ele>215</ele>
        <time>2019-11-19T14:21:55Z</time>
      </trkpt>
      <trkpt lat="43.49167" lon="5.29771">
        <ele>215</ele>
        <time>2019-11-19T14:22:12Z</time>
      </trkpt>
      <trkpt lat="43.49165" lon="5.29784">
        <ele>213</ele>
        <time>2019-11-19T14:23:43Z</time>
      </trkpt>
      <trkpt lat="43.49162" lon="5.29796">
        <ele>214</ele>
        <time>2019-11-19T14:23:53Z</time>
      </trkpt>
      <trkpt lat="43.4916" lon="5.29809">
        <ele>214</ele>
        <time>2019-11-19T14:24:03Z</time>
      </trkpt>
      <trkpt lat="43.49156" lon="5.29821">
        <ele>214</ele>
        <time>2019-11-19T14:24:13Z</time>
      </trkpt>
      <trkpt lat="43.4915" lon="5.29832">
        <ele>215</ele>
        <time>2019-11-19T14:24:23Z</time>
      </trkpt>
      <trkpt lat="43.49145" lon="5.29843">
        <ele>215</ele>
        <time>2019-11-19T14:24:33Z</time>
      </trkpt>
      <trkpt lat="43.49142" lon="5.29855">
        <ele>215</ele>
        <time>2019-11-19T14:24:43Z</time>
      </trkpt>
      <trkpt lat="43.4914" lon="5.29867">
        <ele>215</ele>
        <time>2019-11-19T14:24:53Z</time>
      </trkpt>
      <trkpt lat="43.49142" lon="5.29881">
        <ele>215</ele>
        <time>2019-11-19T14:25:05Z</time>
      </trkpt>
      <trkpt lat="43.49145" lon="5.29893">
        <ele>216</ele>
        <time>2019-11-19T14:25:14Z</time>
      </trkpt>
      <trkpt lat="43.4915" lon="5.29904">
        <ele>216</ele>
        <time>2019-11-19T14:25:25Z</time>
      </trkpt>
      <trkpt lat="43.49155" lon="5.29915">
        <ele>215</ele>
        <time>2019-11-19T14:25:34Z</time>
      </trkpt>
      <trkpt lat="43.49161" lon="5.29925">
        <ele>214</ele>
        <time>2019-11-19T14:25:44Z</time>
      </trkpt>
      <trkpt lat="43.49166" lon="5.29936">
        <ele>214</ele>
        <time>2019-11-19T14:25:54Z</time>
      </trkpt>
      <trkpt lat="43.49168" lon="5.29949">
        <ele>214</ele>
        <time>2019-11-19T14:26:06Z</time>
      </trkpt>
      <trkpt lat="43.4917" lon="5.29961">
        <ele>212</ele>
        <time>2019-11-19T14:26:17Z</time>
      </trkpt>
      <trkpt lat="43.49171" lon="5.29974">
        <ele>210</ele>
        <time>2019-11-19T14:26:30Z</time>
      </trkpt>
      <trkpt lat="43.49172" lon="5.29987">
        <ele>211</ele>
        <time>2019-11-19T14:26:42Z</time>
      </trkpt>
      <trkpt lat="43.49176" lon="5.29999">
        <ele>207</ele>
        <time>2019-11-19T14:26:56Z</time>
      </trkpt>
      <trkpt lat="43.49177" lon="5.30012">
        <ele>206</ele>
        <time>2019-11-19T14:27:07Z</time>
      </trkpt>
      <trkpt lat="43.49179" lon="5.30025">
        <ele>205</ele>
        <time>2019-11-19T14:27:18Z</time>
      </trkpt>
      <trkpt lat="43.49179" lon="5.30038">
        <ele>205</ele>
        <time>2019-11-19T14:27:28Z</time>
      </trkpt>
      <trkpt lat="43.4918" lon="5.30051">
        <ele>205</ele>
        <time>2019-11-19T14:27:36Z</time>
      </trkpt>
      <trkpt lat="43.49179" lon="5.30064">
        <ele>205</ele>
        <time>2019-11-19T14:27:46Z</time>
      </trkpt>
      <trkpt lat="43.49177" lon="5.30078">
        <ele>204</ele>
        <time>2019-11-19T14:27:55Z</time>
      </trkpt>
      <trkpt lat="43.49173" lon="5.3009">
        <ele>205</ele>
        <time>2019-11-19T14:28:05Z</time>
      </trkpt>
      <trkpt lat="43.49169" lon="5.30102">
        <ele>204</ele>
        <time>2019-11-19T14:28:14Z</time>
      </trkpt>
      <trkpt lat="43.49165" lon="5.30113">
        <ele>205</ele>
        <time>2019-11-19T14:28:23Z</time>
      </trkpt>
      <trkpt lat="43.49159" lon="5.30124">
        <ele>206</ele>
        <time>2019-11-19T14:28:32Z</time>
      </trkpt>
      <trkpt lat="43.49154" lon="5.30136">
        <ele>204</ele>
        <time>2019-11-19T14:28:42Z</time>
      </trkpt>
      <trkpt lat="43.49149" lon="5.30148">
        <ele>204</ele>
        <time>2019-11-19T14:28:52Z</time>
      </trkpt>
      <trkpt lat="43.49144" lon="5.30159">
        <ele>203</ele>
        <time>2019-11-19T14:29:01Z</time>
      </trkpt>
      <trkpt lat="43.49138" lon="5.3017">
        <ele>203</ele>
        <time>2019-11-19T14:29:12Z</time>
      </trkpt>
      <trkpt lat="43.49133" lon="5.30182">
        <ele>203</ele>
        <time>2019-11-19T14:29:22Z</time>
      </trkpt>
      <trkpt lat="43.49128" lon="5.30192">
        <ele>202</ele>
        <time>2019-11-19T14:29:31Z</time>
      </trkpt>
      <trkpt lat="43.49124" lon="5.30204">
        <ele>202</ele>
        <time>2019-11-19T14:29:40Z</time>
      </trkpt>
      <trkpt lat="43.4912" lon="5.30215">
        <ele>202</ele>
        <time>2019-11-19T14:29:49Z</time>
      </trkpt>
      <trkpt lat="43.49115" lon="5.30227">
        <ele>202</ele>
        <time>2019-11-19T14:29:59Z</time>
      </trkpt>
      <trkpt lat="43.4911" lon="5.30237">
        <ele>202</ele>
        <time>2019-11-19T14:30:09Z</time>
      </trkpt>
      <trkpt lat="43.49106" lon="5.30249">
        <ele>203</ele>
        <time>2019-11-19T14:30:19Z</time>
      </trkpt>
      <trkpt lat="43.49105" lon="5.30262">
        <ele>201</ele>
        <time>2019-11-19T14:30:30Z</time>
      </trkpt>
      <trkpt lat="43.49105" lon="5.30275">
        <ele>201</ele>
        <time>2019-11-19T14:30:40Z</time>
      </trkpt>
      <trkpt lat="43.49105" lon="5.30289">
        <ele>200</ele>
        <time>2019-11-19T14:30:50Z</time>
      </trkpt>
      <trkpt lat="43.49105" lon="5.30302">
        <ele>200</ele>
        <time>2019-11-19T14:31:00Z</time>
      </trkpt>
      <trkpt lat="43.49104" lon="5.30316">
        <ele>201</ele>
        <time>2019-11-19T14:31:10Z</time>
      </trkpt>
      <trkpt lat="43.49102" lon="5.30329">
        <ele>200</ele>
        <time>2019-11-19T14:31:20Z</time>
      </trkpt>
      <trkpt lat="43.49102" lon="5.30342">
        <ele>199</ele>
        <time>2019-11-19T14:31:33Z</time>
      </trkpt>
      <trkpt lat="43.491" lon="5.30354">
        <ele>198</ele>
        <time>2019-11-19T14:31:44Z</time>
      </trkpt>
      <trkpt lat="43.49098" lon="5.30367">
        <ele>199</ele>
        <time>2019-11-19T14:31:57Z</time>
      </trkpt>
      <trkpt lat="43.49097" lon="5.30379">
        <ele>198</ele>
        <time>2019-11-19T14:32:08Z</time>
      </trkpt>
      <trkpt lat="43.49095" lon="5.30392">
        <ele>197</ele>
        <time>2019-11-19T14:32:21Z</time>
      </trkpt>
      <trkpt lat="43.49095" lon="5.30405">
        <ele>196</ele>
        <time>2019-11-19T14:32:33Z</time>
      </trkpt>
      <trkpt lat="43.49096" lon="5.30418">
        <ele>193</ele>
        <time>2019-11-19T14:32:44Z</time>
      </trkpt>
      <trkpt lat="43.49096" lon="5.30431">
        <ele>191</ele>
        <time>2019-11-19T14:32:56Z</time>
      </trkpt>
      <trkpt lat="43.49097" lon="5.30444">
        <ele>191</ele>
        <time>2019-11-19T14:33:07Z</time>
      </trkpt>
      <trkpt lat="43.49099" lon="5.30456">
        <ele>192</ele>
        <time>2019-11-19T14:33:19Z</time>
      </trkpt>
      <trkpt lat="43.49104" lon="5.30468">
        <ele>190</ele>
        <time>2019-11-19T14:33:31Z</time>
      </trkpt>
      <trkpt lat="43.49106" lon="5.3048">
        <ele>189</ele>
        <time>2019-11-19T14:33:44Z</time>
      </trkpt>
      <trkpt lat="43.4911" lon="5.30491">
        <ele>189</ele>
        <time>2019-11-19T14:33:55Z</time>
      </trkpt>
      <trkpt lat="43.49116" lon="5.30502">
        <ele>189</ele>
        <time>2019-11-19T14:34:07Z</time>
      </trkpt>
      <trkpt lat="43.49121" lon="5.30512">
        <ele>187</ele>
        <time>2019-11-19T14:34:18Z</time>
      </trkpt>
      <trkpt lat="43.49125" lon="5.30524">
        <ele>186</ele>
        <time>2019-11-19T14:34:29Z</time>
      </trkpt>
      <trkpt lat="43.49127" lon="5.30537">
        <ele>185</ele>
        <time>2019-11-19T14:34:40Z</time>
      </trkpt>
      <trkpt lat="43.49127" lon="5.30551">
        <ele>184</ele>
        <time>2019-11-19T14:34:52Z</time>
      </trkpt>
      <trkpt lat="43.49125" lon="5.30564">
        <ele>185</ele>
        <time>2019-11-19T14:35:02Z</time>
      </trkpt>
      <trkpt lat="43.49124" lon="5.30578">
        <ele>183</ele>
        <time>2019-11-19T14:35:14Z</time>
      </trkpt>
      <trkpt lat="43.49123" lon="5.30591">
        <ele>182</ele>
        <time>2019-11-19T14:35:25Z</time>
      </trkpt>
      <trkpt lat="43.49121" lon="5.30604">
        <ele>181</ele>
        <time>2019-11-19T14:35:35Z</time>
      </trkpt>
      <trkpt lat="43.49118" lon="5.30616">
        <ele>181</ele>
        <time>2019-11-19T14:35:46Z</time>
      </trkpt>
      <trkpt lat="43.49114" lon="5.30629">
        <ele>182</ele>
        <time>2019-11-19T14:35:57Z</time>
      </trkpt>
      <trkpt lat="43.4911" lon="5.30641">
        <ele>180</ele>
        <time>2019-11-19T14:36:08Z</time>
      </trkpt>
      <trkpt lat="43.49104" lon="5.3065">
        <ele>180</ele>
        <time>2019-11-19T14:36:18Z</time>
      </trkpt>
      <trkpt lat="43.49097" lon="5.30659">
        <ele>180</ele>
        <time>2019-11-19T14:36:28Z</time>
      </trkpt>
      <trkpt lat="43.4909" lon="5.30668">
        <ele>179</ele>
        <time>2019-11-19T14:36:39Z</time>
      </trkpt>
      <trkpt lat="43.49084" lon="5.30678">
        <ele>179</ele>
        <time>2019-11-19T14:36:49Z</time>
      </trkpt>
      <trkpt lat="43.49078" lon="5.30687">
        <ele>178</ele>
        <time>2019-11-19T14:36:58Z</time>
      </trkpt>
      <trkpt lat="43.49071" lon="5.30696">
        <ele>177</ele>
        <time>2019-11-19T14:37:09Z</time>
      </trkpt>
      <trkpt lat="43.49064" lon="5.30705">
        <ele>177</ele>
        <time>2019-11-19T14:37:19Z</time>
      </trkpt>
      <trkpt lat="43.49057" lon="5.30715">
        <ele>176</ele>
        <time>2019-11-19T14:37:30Z</time>
      </trkpt>
      <trkpt lat="43.49051" lon="5.30724">
        <ele>175</ele>
        <time>2019-11-19T14:37:40Z</time>
      </trkpt>
      <trkpt lat="43.49044" lon="5.30734">
        <ele>175</ele>
        <time>2019-11-19T14:37:50Z</time>
      </trkpt>
      <trkpt lat="43.49037" lon="5.30742">
        <ele>175</ele>
        <time>2019-11-19T14:38:00Z</time>
      </trkpt>
      <trkpt lat="43.49031" lon="5.30751">
        <ele>174</ele>
        <time>2019-11-19T14:38:10Z</time>
      </trkpt>
      <trkpt lat="43.49024" lon="5.30761">
        <ele>174</ele>
        <time>2019-11-19T14:38:20Z</time>
      </trkpt>
      <trkpt lat="43.49017" lon="5.30769">
        <ele>174</ele>
        <time>2019-11-19T14:38:30Z</time>
      </trkpt>
      <trkpt lat="43.49011" lon="5.30778">
        <ele>173</ele>
        <time>2019-11-19T14:38:40Z</time>
      </trkpt>
      <trkpt lat="43.49005" lon="5.30788">
        <ele>171</ele>
        <time>2019-11-19T14:38:50Z</time>
      </trkpt>
      <trkpt lat="43.49" lon="5.30799">
        <ele>171</ele>
        <time>2019-11-19T14:39:01Z</time>
      </trkpt>
      <trkpt lat="43.48994" lon="5.30809">
        <ele>169</ele>
        <time>2019-11-19T14:39:18Z</time>
      </trkpt>
      <trkpt lat="43.4899" lon="5.30821">
        <ele>169</ele>
        <time>2019-11-19T14:39:33Z</time>
      </trkpt>
      <trkpt lat="43.48989" lon="5.30834">
        <ele>168</ele>
        <time>2019-11-19T14:39:44Z</time>
      </trkpt>
      <trkpt lat="43.48988" lon="5.30847">
        <ele>168</ele>
        <time>2019-11-19T14:39:57Z</time>
      </trkpt>
      <trkpt lat="43.48985" lon="5.30859">
        <ele>167</ele>
        <time>2019-11-19T14:40:07Z</time>
      </trkpt>
      <trkpt lat="43.4898" lon="5.3087">
        <ele>167</ele>
        <time>2019-11-19T14:40:17Z</time>
      </trkpt>
      <trkpt lat="43.48975" lon="5.30881">
        <ele>167</ele>
        <time>2019-11-19T14:40:29Z</time>
      </trkpt>
      <trkpt lat="43.4897" lon="5.30891">
        <ele>166</ele>
        <time>2019-11-19T14:40:39Z</time>
      </trkpt>
      <trkpt lat="43.48963" lon="5.30901">
        <ele>166</ele>
        <time>2019-11-19T14:40:49Z</time>
      </trkpt>
      <trkpt lat="43.48955" lon="5.30908">
        <ele>166</ele>
        <time>2019-11-19T14:40:58Z</time>
      </trkpt>
      <trkpt lat="43.48947" lon="5.30915">
        <ele>165</ele>
        <time>2019-11-19T14:41:07Z</time>
      </trkpt>
      <trkpt lat="43.48939" lon="5.30922">
        <ele>165</ele>
        <time>2019-11-19T14:41:17Z</time>
      </trkpt>
      <trkpt lat="43.48932" lon="5.30932">
        <ele>165</ele>
        <time>2019-11-19T14:41:26Z</time>
      </trkpt>
      <trkpt lat="43.48929" lon="5.30944">
        <ele>164</ele>
        <time>2019-11-19T14:41:36Z</time>
      </trkpt>
      <trkpt lat="43.48926" lon="5.30957">
        <ele>164</ele>
        <time>2019-11-19T14:41:46Z</time>
      </trkpt>
      <trkpt lat="43.48924" lon="5.3097">
        <ele>163</ele>
        <time>2019-11-19T14:41:55Z</time>
      </trkpt>
      <trkpt lat="43.48918" lon="5.30981">
        <ele>162</ele>
        <time>2019-11-19T14:42:05Z</time>
      </trkpt>
      <trkpt lat="43.48912" lon="5.30992">
        <ele>162</ele>
        <time>2019-11-19T14:42:21Z</time>
      </trkpt>
      <trkpt lat="43.48908" lon="5.31004">
        <ele>162</ele>
        <time>2019-11-19T14:42:30Z</time>
      </trkpt>
      <trkpt lat="43.48906" lon="5.31017">
        <ele>162</ele>
        <time>2019-11-19T14:42:41Z</time>
      </trkpt>
      <trkpt lat="43.48902" lon="5.3103">
        <ele>161</ele>
        <time>2019-11-19T14:42:51Z</time>
      </trkpt>
      <trkpt lat="43.48896" lon="5.31041">
        <ele>162</ele>
        <time>2019-11-19T14:43:01Z</time>
      </trkpt>
      <trkpt lat="43.48889" lon="5.31049">
        <ele>162</ele>
        <time>2019-11-19T14:43:10Z</time>
      </trkpt>
      <trkpt lat="43.48883" lon="5.31059">
        <ele>161</ele>
        <time>2019-11-19T14:43:19Z</time>
      </trkpt>
      <trkpt lat="43.48877" lon="5.31068">
        <ele>162</ele>
        <time>2019-11-19T14:43:28Z</time>
      </trkpt>
      <trkpt lat="43.48869" lon="5.31075">
        <ele>162</ele>
        <time>2019-11-19T14:43:38Z</time>
      </trkpt>
      <trkpt lat="43.48862" lon="5.31082">
        <ele>161</ele>
        <time>2019-11-19T14:43:48Z</time>
      </trkpt>
      <trkpt lat="43.48855" lon="5.31092">
        <ele>160</ele>
        <time>2019-11-19T14:43:58Z</time>
      </trkpt>
      <trkpt lat="43.48849" lon="5.31101">
        <ele>160</ele>
        <time>2019-11-19T14:44:08Z</time>
      </trkpt>
      <trkpt lat="43.48842" lon="5.31109">
        <ele>160</ele>
        <time>2019-11-19T14:44:17Z</time>
      </trkpt>
      <trkpt lat="43.48835" lon="5.3112">
        <ele>159</ele>
        <time>2019-11-19T14:44:27Z</time>
      </trkpt>
      <trkpt lat="43.48828" lon="5.31128">
        <ele>159</ele>
        <time>2019-11-19T14:44:37Z</time>
      </trkpt>
      <trkpt lat="43.4882" lon="5.31136">
        <ele>161</ele>
        <time>2019-11-19T14:44:47Z</time>
      </trkpt>
      <trkpt lat="43.48812" lon="5.31144">
        <ele>162</ele>
        <time>2019-11-19T14:44:57Z</time>
      </trkpt>
      <trkpt lat="43.48807" lon="5.31153">
        <ele>161</ele>
        <time>2019-11-19T14:45:07Z</time>
      </trkpt>
      <trkpt lat="43.48801" lon="5.31164">
        <ele>162</ele>
        <time>2019-11-19T14:45:17Z</time>
      </trkpt>
      <trkpt lat="43.48795" lon="5.31175">
        <ele>162</ele>
        <time>2019-11-19T14:45:27Z</time>
      </trkpt>
      <trkpt lat="43.48789" lon="5.31184">
        <ele>162</ele>
        <time>2019-11-19T14:45:38Z</time>
      </trkpt>
      <trkpt lat="43.48784" lon="5.31195">
        <ele>161</ele>
        <time>2019-11-19T14:45:49Z</time>
      </trkpt>
      <trkpt lat="43.48777" lon="5.31204">
        <ele>160</ele>
        <time>2019-11-19T14:46:00Z</time>
      </trkpt>
      <trkpt lat="43.48772" lon="5.31216">
        <ele>159</ele>
        <time>2019-11-19T14:46:10Z</time>
      </trkpt>
      <trkpt lat="43.48766" lon="5.31226">
        <ele>159</ele>
        <time>2019-11-19T14:46:20Z</time>
      </trkpt>
      <trkpt lat="43.48762" lon="5.31238">
        <ele>159</ele>
        <time>2019-11-19T14:46:29Z</time>
      </trkpt>
      <trkpt lat="43.48758" lon="5.31249">
        <ele>158</ele>
        <time>2019-11-19T14:46:39Z</time>
      </trkpt>
      <trkpt lat="43.48755" lon="5.31261">
        <ele>157</ele>
        <time>2019-11-19T14:46:49Z</time>
      </trkpt>
      <trkpt lat="43.48751" lon="5.31273">
        <ele>156</ele>
        <time>2019-11-19T14:46:59Z</time>
      </trkpt>
      <trkpt lat="43.48745" lon="5.31283">
        <ele>156</ele>
        <time>2019-11-19T14:47:08Z</time>
      </trkpt>
      <trkpt lat="43.4874" lon="5.31294">
        <ele>155</ele>
        <time>2019-11-19T14:47:19Z</time>
      </trkpt>
      <trkpt lat="43.48736" lon="5.31306">
        <ele>154</ele>
        <time>2019-11-19T14:47:29Z</time>
      </trkpt>
      <trkpt lat="43.48731" lon="5.31316">
        <ele>154</ele>
        <time>2019-11-19T14:47:39Z</time>
      </trkpt>
      <trkpt lat="43.48726" lon="5.31327">
        <ele>152</ele>
        <time>2019-11-19T14:47:49Z</time>
      </trkpt>
      <trkpt lat="43.48721" lon="5.31338">
        <ele>152</ele>
        <time>2019-11-19T14:47:58Z</time>
      </trkpt>
      <trkpt lat="43.48716" lon="5.31348">
        <ele>152</ele>
        <time>2019-11-19T14:48:07Z</time>
      </trkpt>
      <trkpt lat="43.48711" lon="5.31358">
        <ele>153</ele>
        <time>2019-11-19T14:48:18Z</time>
      </trkpt>
      <trkpt lat="43.48706" lon="5.3137">
        <ele>152</ele>
        <time>2019-11-19T14:48:28Z</time>
      </trkpt>
      <trkpt lat="43.48711" lon="5.31382">
        <ele>153</ele>
        <time>2019-11-19T14:49:18Z</time>
      </trkpt>
      <trkpt lat="43.48714" lon="5.31394">
        <ele>153</ele>
        <time>2019-11-19T14:49:29Z</time>
      </trkpt>
      <trkpt lat="43.48719" lon="5.31405">
        <ele>151</ele>
        <time>2019-11-19T14:49:40Z</time>
      </trkpt>
      <trkpt lat="43.48726" lon="5.31412">
        <ele>149</ele>
        <time>2019-11-19T14:49:51Z</time>
      </trkpt>
      <trkpt lat="43.48735" lon="5.31418">
        <ele>149</ele>
        <time>2019-11-19T14:50:02Z</time>
      </trkpt>
      <trkpt lat="43.48742" lon="5.31425">
        <ele>148</ele>
        <time>2019-11-19T14:50:11Z</time>
      </trkpt>
      <trkpt lat="43.48749" lon="5.31434">
        <ele>148</ele>
        <time>2019-11-19T14:50:24Z</time>
      </trkpt>
      <trkpt lat="43.48751" lon="5.31446">
        <ele>148</ele>
        <time>2019-11-19T14:50:36Z</time>
      </trkpt>
      <trkpt lat="43.48747" lon="5.31457">
        <ele>148</ele>
        <time>2019-11-19T14:50:46Z</time>
      </trkpt>
      <trkpt lat="43.48738" lon="5.31463">
        <ele>146</ele>
        <time>2019-11-19T14:50:58Z</time>
      </trkpt>
      <trkpt lat="43.48731" lon="5.31473">
        <ele>144</ele>
        <time>2019-11-19T14:51:07Z</time>
      </trkpt>
      <trkpt lat="43.48723" lon="5.31479">
        <ele>143</ele>
        <time>2019-11-19T14:51:18Z</time>
      </trkpt>
      <trkpt lat="43.48714" lon="5.31486">
        <ele>143</ele>
        <time>2019-11-19T14:51:27Z</time>
      </trkpt>
      <trkpt lat="43.48705" lon="5.31489">
        <ele>142</ele>
        <time>2019-11-19T14:51:39Z</time>
      </trkpt>
      <trkpt lat="43.48696" lon="5.31489">
        <ele>141</ele>
        <time>2019-11-19T14:51:49Z</time>
      </trkpt>
      <trkpt lat="43.48686" lon="5.31488">
        <ele>141</ele>
        <time>2019-11-19T14:52:00Z</time>
      </trkpt>
      <trkpt lat="43.48677" lon="5.31489">
        <ele>140</ele>
        <time>2019-11-19T14:52:10Z</time>
      </trkpt>
      <trkpt lat="43.48668" lon="5.31493">
        <ele>139</ele>
        <time>2019-11-19T14:52:20Z</time>
      </trkpt>
      <trkpt lat="43.4866" lon="5.31499">
        <ele>138</ele>
        <time>2019-11-19T14:52:29Z</time>
      </trkpt>
      <trkpt lat="43.48651" lon="5.31503">
        <ele>138</ele>
        <time>2019-11-19T14:52:39Z</time>
      </trkpt>
      <trkpt lat="43.48643" lon="5.3151">
        <ele>137</ele>
        <time>2019-11-19T14:52:49Z</time>
      </trkpt>
      <trkpt lat="43.48641" lon="5.31523">
        <ele>136</ele>
        <time>2019-11-19T14:53:00Z</time>
      </trkpt>
      <trkpt lat="43.4864" lon="5.31536">
        <ele>135</ele>
        <time>2019-11-19T14:53:11Z</time>
      </trkpt>
      <trkpt lat="43.48639" lon="5.31548">
        <ele>134</ele>
        <time>2019-11-19T14:53:21Z</time>
      </trkpt>
      <trkpt lat="43.48636" lon="5.31561">
        <ele>133</ele>
        <time>2019-11-19T14:53:32Z</time>
      </trkpt>
      <trkpt lat="43.4863" lon="5.31571">
        <ele>131</ele>
        <time>2019-11-19T14:53:44Z</time>
      </trkpt>
      <trkpt lat="43.48626" lon="5.31583">
        <ele>131</ele>
        <time>2019-11-19T14:53:56Z</time>
      </trkpt>
      <trkpt lat="43.48626" lon="5.31596">
        <ele>130</ele>
        <time>2019-11-19T14:54:06Z</time>
      </trkpt>
      <trkpt lat="43.4863" lon="5.31607">
        <ele>129</ele>
        <time>2019-11-19T14:54:16Z</time>
      </trkpt>
      <trkpt lat="43.48638" lon="5.31614">
        <ele>128</ele>
        <time>2019-11-19T14:54:26Z</time>
      </trkpt>
      <trkpt lat="43.48648" lon="5.31615">
        <ele>128</ele>
        <time>2019-11-19T14:54:36Z</time>
      </trkpt>
      <trkpt lat="43.48657" lon="5.31613">
        <ele>128</ele>
        <time>2019-11-19T14:54:45Z</time>
      </trkpt>
      <trkpt lat="43.48667" lon="5.31613">
        <ele>127</ele>
        <time>2019-11-19T14:54:54Z</time>
      </trkpt>
      <trkpt lat="43.48676" lon="5.31617">
        <ele>126</ele>
        <time>2019-11-19T14:55:03Z</time>
      </trkpt>
      <trkpt lat="43.48686" lon="5.3162">
        <ele>126</ele>
        <time>2019-11-19T14:55:13Z</time>
      </trkpt>
      <trkpt lat="43.48694" lon="5.31624">
        <ele>126</ele>
        <time>2019-11-19T14:55:24Z</time>
      </trkpt>
      <trkpt lat="43.48704" lon="5.31622">
        <ele>126</ele>
        <time>2019-11-19T14:55:34Z</time>
      </trkpt>
      <trkpt lat="43.48713" lon="5.31616">
        <ele>126</ele>
        <time>2019-11-19T14:55:44Z</time>
      </trkpt>
      <trkpt lat="43.4872" lon="5.31609">
        <ele>126</ele>
        <time>2019-11-19T14:55:54Z</time>
      </trkpt>
      <trkpt lat="43.48727" lon="5.31602">
        <ele>126</ele>
        <time>2019-11-19T14:56:04Z</time>
      </trkpt>
      <trkpt lat="43.48736" lon="5.31594">
        <ele>127</ele>
        <time>2019-11-19T14:56:14Z</time>
      </trkpt>
      <trkpt lat="43.48744" lon="5.31587">
        <ele>126</ele>
        <time>2019-11-19T14:56:25Z</time>
      </trkpt>
      <trkpt lat="43.48753" lon="5.31583">
        <ele>125</ele>
        <time>2019-11-19T14:56:41Z</time>
      </trkpt>
      <trkpt lat="43.48761" lon="5.31577">
        <ele>122</ele>
        <time>2019-11-19T14:56:52Z</time>
      </trkpt>
      <trkpt lat="43.48766" lon="5.31566">
        <ele>123</ele>
        <time>2019-11-19T14:57:02Z</time>
      </trkpt>
      <trkpt lat="43.48768" lon="5.31553">
        <ele>123</ele>
        <time>2019-11-19T14:57:11Z</time>
      </trkpt>
      <trkpt lat="43.48773" lon="5.31543">
        <ele>123</ele>
        <time>2019-11-19T14:57:20Z</time>
      </trkpt>
      <trkpt lat="43.48782" lon="5.31541">
        <ele>123</ele>
        <time>2019-11-19T14:57:31Z</time>
      </trkpt>
      <trkpt lat="43.48791" lon="5.31547">
        <ele>122</ele>
        <time>2019-11-19T14:57:40Z</time>
      </trkpt>
      <trkpt lat="43.48797" lon="5.31556">
        <ele>121</ele>
        <time>2019-11-19T14:57:48Z</time>
      </trkpt>
      <trkpt lat="43.48802" lon="5.31567">
        <ele>120</ele>
        <time>2019-11-19T14:58:00Z</time>
      </trkpt>
      <trkpt lat="43.48809" lon="5.31577">
        <ele>120</ele>
        <time>2019-11-19T14:58:11Z</time>
      </trkpt>
      <trkpt lat="43.48816" lon="5.31586">
        <ele>121</ele>
        <time>2019-11-19T14:58:23Z</time>
      </trkpt>
      <trkpt lat="43.4882" lon="5.31597">
        <ele>121</ele>
        <time>2019-11-19T14:58:35Z</time>
      </trkpt>
      <trkpt lat="43.48826" lon="5.31607">
        <ele>121</ele>
        <time>2019-11-19T14:58:46Z</time>
      </trkpt>
      <trkpt lat="43.48833" lon="5.31617">
        <ele>121</ele>
        <time>2019-11-19T14:58:57Z</time>
      </trkpt>
      <trkpt lat="43.4884" lon="5.31625">
        <ele>121</ele>
        <time>2019-11-19T14:59:07Z</time>
      </trkpt>
      <trkpt lat="43.48845" lon="5.31635">
        <ele>122</ele>
        <time>2019-11-19T14:59:17Z</time>
      </trkpt>
      <trkpt lat="43.48854" lon="5.3164">
        <ele>123</ele>
        <time>2019-11-19T14:59:29Z</time>
      </trkpt>
      <trkpt lat="43.48863" lon="5.31637">
        <ele>124</ele>
        <time>2019-11-19T14:59:41Z</time>
      </trkpt>
      <trkpt lat="43.48869" lon="5.31647">
        <ele>124</ele>
        <time>2019-11-19T14:59:51Z</time>
      </trkpt>
      <trkpt lat="43.48871" lon="5.3166">
        <ele>127</ele>
        <time>2019-11-19T15:00:05Z</time>
      </trkpt>
    </trkseg>
  </trk>
</gpx>